SCCI/PUQ METAR and TAF weather

Enter ICAO airport designator
Station Type Date Time Source
SCCI METAR 2018/12/15 21:00 UTC NOAA

SCCI 152100Z 26027KT 9999 FEW030 SCT050 15/06 Q0977 NOSIG


Station Type Date Time Source
SCCI Decoded METAR 2018/12/15 21:00 UTC NOAA

Punta Arenas, Chile (SCCI) 53-00S 070-51W 33M
Dec 15, 2018 - 04:00 PM EST / 2018.12.15 2100 UTC
Wind: from the W (260 degrees) at 31 MPH (27 KT):0
Visibility: greater than 7 mile(s):0
Sky conditions: partly cloudy
Temperature: 59 F (15 C)
Dew Point: 42 F (6 C)
Relative Humidity: 54%
Pressure (altimeter): 28.85 in. Hg (0977 hPa)
ob: SCCI 152100Z 26027KT 9999 FEW030 SCT050 15/06 Q0977 NOSIG
cycle: 21

Station Type Date Time Source
SCCI TAF 2018/12/15 18:03 UTC NOAA

TAF SCCI 151625Z 1518/1618 26035G50KT 9000 FEW022 SCT040 TX18/1518Z TN04/1609Z
TEMPO 1518/1602 27045G57KT
BECMG 1603/1605 22022KT
BECMG 1608/1610 26025G40KT
BECMG 1615/1617 26030G45KT


Example: see airport list